Time;durP1;ratioP1;P1;durP2;ratioP2;P2;SDS_P1;SDS_P2;PMS_P1;PMS_P2;Temp;Humidity;BMP_temperature;BMP_pressure;BME280_temperature;BME280_humidity;BME280_pressure;Samples;Min_cycle;Max_cycle;Signal;HPM_P1;HPM_P2
2022/12/10 00:01:29;;;;;;;;;;;2.70;97.40;;;;;;5060849;28;20364;-74
2022/12/10 00:03:56;;;;;;;;;;;2.70;97.50;;;;;;5064006;28;19980;-73
2022/12/10 00:06:25;;;;;;;;;;;2.70;97.50;;;;;;5062182;28;19991;-74
2022/12/10 00:08:51;;;;;;;;;;;2.70;97.40;;;;;;5063294;28;19975;-73
2022/12/10 00:11:19;;;;;;;;;;;2.70;97.40;;;;;;5062797;28;19987;-74
2022/12/10 00:13:46;;;;;;;;;;;2.70;97.40;;;;;;5059212;28;20390;-74
2022/12/10 00:16:13;;;;;;;;;;;2.70;97.50;;;;;;5058351;28;20530;-73
2022/12/10 00:18:40;;;;;;;;;;;2.70;97.50;;;;;;5064772;28;19982;-74
2022/12/10 00:21:07;;;;;;;;;;;2.70;97.40;;;;;;5062315;28;20362;-73
2022/12/10 00:23:36;;;;;;;;;;;2.70;97.50;;;;;;5054101;28;19976;-72
2022/12/10 00:26:03;;;;;;;;;;;2.70;97.50;;;;;;5056578;28;19979;-75
2022/12/10 00:28:32;;;;;;;;;;;2.70;97.50;;;;;;5056275;28;20022;-75
2022/12/10 00:31:02;;;;;;;;;;;2.70;97.50;;;;;;5061956;28;20089;-75
2022/12/10 00:33:29;;;;;;;;;;;2.70;97.50;;;;;;5065980;28;20339;-75
2022/12/10 00:35:55;;;;;;;;;;;2.60;97.40;;;;;;5054643;28;20447;-74
2022/12/10 00:38:22;;;;;;;;;;;2.70;97.50;;;;;;5065432;28;20342;-74
2022/12/10 00:40:50;;;;;;;;;;;2.70;97.50;;;;;;5063927;28;20011;-74
2022/12/10 00:43:16;;;;;;;;;;;2.70;97.50;;;;;;5065958;28;19998;-74
2022/12/10 00:45:43;;;;;;;;;;;2.70;97.50;;;;;;5056986;28;20033;-74
2022/12/10 00:48:09;;;;;;;;;;;2.70;97.50;;;;;;5061193;28;20003;-74
2022/12/10 00:50:36;;;;;;;;;;;2.70;97.50;;;;;;5057464;28;20014;-72
2022/12/10 00:53:03;;;;;;;;;;;2.70;97.50;;;;;;5059017;28;19979;-75
2022/12/10 00:55:29;;;;;;;;;;;2.70;97.50;;;;;;5064621;28;19986;-75
2022/12/10 00:57:57;;;;;;;;;;;2.70;97.50;;;;;;5064942;28;20569;-74
2022/12/10 01:00:24;;;;;;;;;;;2.70;97.60;;;;;;5061657;28;19996;-74
2022/12/10 01:02:50;;;;;;;;;;;2.70;97.50;;;;;;5063146;28;20022;-75
2022/12/10 01:05:17;;;;;;;;;;;2.70;97.50;;;;;;5065745;28;19982;-73
2022/12/10 01:07:44;;;;;;;;;;;2.70;97.50;;;;;;5058436;28;19988;-74
2022/12/10 01:10:10;;;;;;;;;;;2.60;97.50;;;;;;5063110;28;19995;-74
2022/12/10 01:12:37;;;;;;;;;;;2.60;97.50;;;;;;5053856;28;19979;-74
2022/12/10 01:15:05;;;;;;;;;;;2.60;97.50;;;;;;5064285;28;19983;-73
2022/12/10 01:17:32;;;;;;;;;;;2.60;97.50;;;;;;5081643;28;19994;-74
2022/12/10 01:19:58;;;;;;;;;;;2.60;97.50;;;;;;5080639;28;19998;-74
2022/12/10 01:22:25;;;;;;;;;;;2.60;97.50;;;;;;5087104;28;19986;-74
2022/12/10 01:24:51;;;;;;;;;;;2.70;97.80;;;;;;5082938;28;19971;-74
2022/12/10 01:27:18;;;;;;;;;;;2.60;97.50;;;;;;5085195;28;19991;-74
2022/12/10 01:29:44;;;;;;;;;;;2.60;97.50;;;;;;5083323;28;20007;-71
2022/12/10 01:32:12;;;;;;;;;;;2.60;97.50;;;;;;5080340;28;20471;-74
2022/12/10 01:34:39;;;;;;;;;;;2.60;97.50;;;;;;5080217;28;19986;-74
2022/12/10 01:37:05;;;;;;;;;;;2.60;97.50;;;;;;5082749;28;19983;-75
2022/12/10 01:39:32;;;;;;;;;;;2.60;97.60;;;;;;5085227;28;20002;-74
2022/12/10 01:42:00;;;;;;;;;;;2.60;97.60;;;;;;5085042;28;19983;-74
2022/12/10 01:44:45;;;;;;;;;;;2.60;97.60;;;;;;5085578;28;19986;-74
2022/12/10 01:47:13;;;;;;;;;;;2.60;97.60;;;;;;5075455;28;20001;-73
2022/12/10 01:49:41;;;;;;;;;;;2.60;97.70;;;;;;5080755;28;20003;-74
2022/12/10 01:52:08;;;;;;;;;;;2.60;97.60;;;;;;5080466;28;20583;-74
2022/12/10 01:54:36;;;;;;;;;;;2.60;97.60;;;;;;5085374;28;20394;-74
2022/12/10 01:57:05;;;;;;;;;;;2.60;97.60;;;;;;5080302;28;19978;-74
2022/12/10 01:59:32;;;;;;;;;;;2.60;97.60;;;;;;5078472;28;20002;-74
2022/12/10 02:02:02;;;;;;;;;;;2.60;97.60;;;;;;5077850;28;20800;-74
2022/12/10 02:04:34;;;;;;;;;;;2.60;97.60;;;;;;5084426;28;19979;-75
2022/12/10 02:07:02;;;;;;;;;;;2.60;97.60;;;;;;5083627;28;19993;-73
2022/12/10 02:09:33;;;;;;;;;;;2.60;97.60;;;;;;5081701;28;19980;-74
2022/12/10 02:12:06;;;;;;;;;;;2.60;97.60;;;;;;5080730;28;19971;-74
2022/12/10 02:14:38;;;;;;;;;;;2.60;97.60;;;;;;5084472;28;19978;-74
2022/12/10 02:17:06;;;;;;;;;;;2.60;97.70;;;;;;5074270;28;19991;-74
2022/12/10 02:19:41;;;;;;;;;;;2.60;97.70;;;;;;5084069;28;19999;-74
2022/12/10 02:22:08;;;;;;;;;;;2.60;97.60;;;;;;5078521;28;20583;-74
2022/12/10 02:24:36;;;;;;;;;;;2.60;97.70;;;;;;5079256;28;19978;-75
2022/12/10 02:27:05;;;;;;;;;;;2.60;97.70;;;;;;5079612;28;19994;-74
2022/12/10 02:29:35;;;;;;;;;;;2.60;97.70;;;;;;5083382;28;19999;-74
2022/12/10 02:32:03;;;;;;;;;;;2.60;97.70;;;;;;5081653;28;19995;-74
2022/12/10 02:34:32;;;;;;;;;;;2.60;97.70;;;;;;5083828;28;20465;-74
2022/12/10 02:37:00;;;;;;;;;;;2.60;97.70;;;;;;5085518;28;19982;-74
2022/12/10 02:39:30;;;;;;;;;;;2.60;97.70;;;;;;5080909;28;19979;-74
2022/12/10 02:41:58;;;;;;;;;;;2.60;97.70;;;;;;5084303;28;19975;-74
2022/12/10 02:44:26;;;;;;;;;;;2.50;97.70;;;;;;5079368;28;19979;-73
2022/12/10 02:46:56;;;;;;;;;;;2.50;97.70;;;;;;5078702;28;19995;-74
2022/12/10 02:49:23;;;;;;;;;;;2.50;97.70;;;;;;5088183;28;19982;-75
2022/12/10 02:51:49;;;;;;;;;;;2.50;97.70;;;;;;5082806;28;19971;-74
2022/12/10 02:54:37;;;;;;;;;;;2.50;97.70;;;;;;5080385;28;20674;-75
2022/12/10 02:57:05;;;;;;;;;;;2.50;97.70;;;;;;5084456;28;19975;-74
2022/12/10 02:59:38;;;;;;;;;;;2.50;97.70;;;;;;5088432;28;20006;-74
2022/12/10 03:02:08;;;;;;;;;;;2.50;97.70;;;;;;5078167;28;19991;-74
2022/12/10 03:04:40;;;;;;;;;;;2.50;97.70;;;;;;5084146;28;19986;-74
2022/12/10 03:07:10;;;;;;;;;;;2.50;97.80;;;;;;5083202;28;20490;-74
2022/12/10 03:09:39;;;;;;;;;;;2.50;97.80;;;;;;5083839;28;19991;-73
2022/12/10 03:12:09;;;;;;;;;;;2.50;97.80;;;;;;5088384;28;20321;-75
2022/12/10 03:14:36;;;;;;;;;;;2.50;97.80;;;;;;5088804;28;19975;-74
2022/12/10 03:17:04;;;;;;;;;;;2.50;97.80;;;;;;5079855;28;20089;-74
2022/12/10 03:19:36;;;;;;;;;;;2.50;97.80;;;;;;5084441;28;20006;-74
2022/12/10 03:22:03;;;;;;;;;;;2.50;97.80;;;;;;5079787;28;19975;-74
2022/12/10 03:24:31;;;;;;;;;;;2.50;97.80;;;;;;5084251;28;20062;-74
2022/12/10 03:26:58;;;;;;;;;;;2.50;97.80;;;;;;5088170;28;19975;-74
2022/12/10 03:29:28;;;;;;;;;;;2.50;97.90;;;;;;5088684;28;19997;-74
2022/12/10 03:31:55;;;;;;;;;;;2.50;97.90;;;;;;5085289;28;19998;-73
2022/12/10 03:34:22;;;;;;;;;;;2.50;97.90;;;;;;5087370;28;19979;-74
2022/12/10 03:36:51;;;;;;;;;;;2.50;97.90;;;;;;5087197;28;19987;-74
2022/12/10 03:39:18;;;;;;;;;;;2.50;97.90;;;;;;5084493;28;19975;-74
2022/12/10 03:41:44;;;;;;;;;;;2.50;97.90;;;;;;5088916;28;19986;-74
2022/12/10 03:44:11;;;;;;;;;;;2.50;97.90;;;;;;5087742;28;19975;-73
2022/12/10 03:46:38;;;;;;;;;;;2.50;97.90;;;;;;5073195;28;19995;-75
2022/12/10 03:49:05;;;;;;;;;;;2.40;97.90;;;;;;5065800;28;20462;-75
2022/12/10 03:51:31;;;;;;;;;;;2.50;97.90;;;;;;5061450;28;20497;-74
2022/12/10 03:53:59;;;;;;;;;;;2.40;97.90;;;;;;5066459;28;20638;-74
2022/12/10 03:56:26;;;;;;;;;;;2.40;97.90;;;;;;5063006;28;20254;-74
2022/12/10 03:58:52;;;;;;;;;;;2.40;98.00;;;;;;5067303;28;19986;-74
2022/12/10 04:01:19;;;;;;;;;;;2.40;98.00;;;;;;5062079;28;20002;-74
2022/12/10 04:03:45;;;;;;;;;;;2.40;98.00;;;;;;5067079;28;19986;-74
2022/12/10 04:06:13;;;;;;;;;;;2.40;98.00;;;;;;5066644;28;19990;-73
2022/12/10 04:08:40;;;;;;;;;;;2.40;98.00;;;;;;5065320;28;19992;-74
2022/12/10 04:11:09;;;;;;;;;;;2.40;98.00;;;;;;5058351;28;19992;-75
2022/12/10 04:16:30;;;;;;;;;;;2.40;98.00;;;;;;5061680;28;19998;-74
2022/12/10 04:18:57;;;;;;;;;;;2.40;98.00;;;;;;5056839;28;19979;-74
2022/12/10 04:26:55;;;;;;;;;;;2.40;98.00;;;;;;5062293;28;19986;-75
2022/12/10 04:29:21;;;;;;;;;;;2.40;98.00;;;;;;5067183;28;20077;-74
2022/12/10 04:31:48;;;;;;;;;;;2.30;98.00;;;;;;5061468;28;19995;-73
2022/12/10 04:34:15;;;;;;;;;;;2.40;98.10;;;;;;5061228;28;20355;-75
2022/12/10 04:36:41;;;;;;;;;;;2.30;98.10;;;;;;5065471;28;19979;-74
2022/12/10 04:39:11;;;;;;;;;;;2.40;98.10;;;;;;5059181;28;19987;-74
2022/12/10 04:41:38;;;;;;;;;;;2.30;98.10;;;;;;5061032;28;20033;-74
2022/12/10 04:44:06;;;;;;;;;;;2.40;98.40;;;;;;5064994;28;19986;-75
2022/12/10 04:46:32;;;;;;;;;;;2.30;98.10;;;;;;5062767;28;19995;-74
2022/12/10 04:48:59;;;;;;;;;;;2.40;98.10;;;;;;5062221;28;20483;-74
2022/12/10 04:51:25;;;;;;;;;;;2.40;98.00;;;;;;5061866;28;19999;-74
2022/12/10 04:53:52;;;;;;;;;;;2.30;98.00;;;;;;5063337;28;19985;-74
2022/12/10 04:56:18;;;;;;;;;;;2.30;98.00;;;;;;5059579;28;19975;-73
2022/12/10 04:58:46;;;;;;;;;;;2.30;98.00;;;;;;5065866;28;19975;-73
2022/12/10 05:01:14;;;;;;;;;;;2.30;98.00;;;;;;5059249;28;20458;-74
2022/12/10 05:03:41;;;;;;;;;;;2.30;98.00;;;;;;5061168;28;19979;-73
2022/12/10 05:06:08;;;;;;;;;;;2.30;98.00;;;;;;5065029;28;19979;-74
2022/12/10 05:08:35;;;;;;;;;;;2.30;98.00;;;;;;5054062;28;19995;-74
2022/12/10 05:11:02;;;;;;;;;;;2.30;98.00;;;;;;5065812;28;20003;-74
2022/12/10 05:13:29;;;;;;;;;;;2.30;98.00;;;;;;5057642;28;19979;-74
2022/12/10 05:15:55;;;;;;;;;;;2.30;98.00;;;;;;5054255;28;19995;-74
2022/12/10 05:18:23;;;;;;;;;;;2.30;98.00;;;;;;5056820;28;19975;-74
2022/12/10 05:20:50;;;;;;;;;;;2.30;98.00;;;;;;5060120;28;19998;-74
2022/12/10 05:23:28;;;;;;;;;;;2.30;98.00;;;;;;5059671;28;19979;-74
2022/12/10 05:26:01;;;;;;;;;;;2.30;98.00;;;;;;5062039;28;20062;-74
2022/12/10 05:28:28;;;;;;;;;;;2.30;98.00;;;;;;5064032;28;20455;-74
2022/12/10 05:30:55;;;;;;;;;;;2.30;97.90;;;;;;5059726;28;19999;-74
2022/12/10 05:33:22;;;;;;;;;;;2.30;98.00;;;;;;5062922;28;20058;-74
2022/12/10 05:35:57;;;;;;;;;;;2.30;98.00;;;;;;5063311;28;19979;-74
2022/12/10 05:38:23;;;;;;;;;;;2.30;97.90;;;;;;5063176;28;20390;-74
2022/12/10 05:40:50;;;;;;;;;;;2.30;97.90;;;;;;5063378;28;21144;-74
2022/12/10 05:43:17;;;;;;;;;;;2.30;97.90;;;;;;5063449;28;19986;-73
2022/12/10 05:45:44;;;;;;;;;;;2.30;97.90;;;;;;5062130;28;19991;-74
2022/12/10 05:48:11;;;;;;;;;;;2.30;97.90;;;;;;5064289;28;19998;-74
2022/12/10 05:50:38;;;;;;;;;;;2.30;97.90;;;;;;5063556;28;20010;-74
2022/12/10 05:53:06;;;;;;;;;;;2.30;97.90;;;;;;5064656;28;20680;-74
2022/12/10 05:55:33;;;;;;;;;;;2.30;97.90;;;;;;5061485;28;19989;-74
2022/12/10 05:57:59;;;;;;;;;;;2.30;97.90;;;;;;5062572;28;20475;-74
2022/12/10 06:00:26;;;;;;;;;;;2.30;97.90;;;;;;5057542;28;19999;-73
2022/12/10 06:02:53;;;;;;;;;;;2.30;97.90;;;;;;5057380;28;20367;-74
2022/12/10 06:05:19;;;;;;;;;;;2.20;97.90;;;;;;5056414;28;19975;-74
2022/12/10 06:07:46;;;;;;;;;;;2.20;97.80;;;;;;5059512;28;19987;-74
2022/12/10 06:10:14;;;;;;;;;;;2.30;97.90;;;;;;5056193;28;20077;-73
2022/12/10 06:12:40;;;;;;;;;;;2.30;97.90;;;;;;5060410;28;20369;-73
2022/12/10 06:15:07;;;;;;;;;;;2.20;97.90;;;;;;5058131;28;20258;-73
2022/12/10 06:17:34;;;;;;;;;;;2.20;97.90;;;;;;5064403;28;19983;-75
2022/12/10 06:20:00;;;;;;;;;;;2.20;97.90;;;;;;5059350;28;20784;-74
2022/12/10 06:22:27;;;;;;;;;;;2.30;97.90;;;;;;5064832;28;20289;-74
2022/12/10 06:24:54;;;;;;;;;;;2.20;97.90;;;;;;5060095;28;19987;-73
2022/12/10 06:27:21;;;;;;;;;;;2.20;97.90;;;;;;5064221;28;19972;-74
2022/12/10 06:29:48;;;;;;;;;;;2.20;97.90;;;;;;5060816;28;19999;-74
2022/12/10 06:32:15;;;;;;;;;;;2.20;97.90;;;;;;5062256;28;19991;-74
2022/12/10 06:34:41;;;;;;;;;;;2.20;97.80;;;;;;5063945;28;20446;-74
2022/12/10 06:37:08;;;;;;;;;;;2.20;97.90;;;;;;5063543;28;19979;-74
2022/12/10 06:39:34;;;;;;;;;;;2.20;97.90;;;;;;5056997;28;19995;-74
2022/12/10 06:42:01;;;;;;;;;;;2.20;97.90;;;;;;5055099;28;19979;-74
2022/12/10 06:44:29;;;;;;;;;;;2.20;97.80;;;;;;5063743;28;20437;-75
2022/12/10 06:46:55;;;;;;;;;;;2.20;97.90;;;;;;5056404;28;19988;-74
2022/12/10 06:49:22;;;;;;;;;;;2.20;97.90;;;;;;5062893;28;19999;-75
2022/12/10 06:51:49;;;;;;;;;;;2.20;97.90;;;;;;5055511;28;19987;-74
2022/12/10 06:54:15;;;;;;;;;;;2.20;97.90;;;;;;5062068;28;19997;-74
2022/12/10 06:56:42;;;;;;;;;;;2.20;97.90;;;;;;5060648;28;19987;-75
2022/12/10 06:59:08;;;;;;;;;;;2.20;97.90;;;;;;5063670;28;19991;-74
2022/12/10 07:01:39;;;;;;;;;;;2.20;97.90;;;;;;5059853;28;19999;-73
2022/12/10 07:04:06;;;;;;;;;;;2.20;97.90;;;;;;5059362;28;19976;-73
2022/12/10 07:06:33;;;;;;;;;;;2.20;97.90;;;;;;5054187;28;19980;-74
2022/12/10 07:08:59;;;;;;;;;;;2.20;97.90;;;;;;5060893;28;19994;-74
2022/12/10 07:11:26;;;;;;;;;;;2.20;97.90;;;;;;5059362;28;20002;-73
2022/12/10 07:13:53;;;;;;;;;;;2.20;97.90;;;;;;5064061;28;19979;-74
2022/12/10 07:16:20;;;;;;;;;;;2.10;97.80;;;;;;5057894;28;20074;-74
2022/12/10 07:18:49;;;;;;;;;;;2.20;97.90;;;;;;5063816;28;20691;-74
2022/12/10 07:21:16;;;;;;;;;;;2.10;97.80;;;;;;5060884;28;19991;-73
2022/12/10 07:23:43;;;;;;;;;;;2.10;97.80;;;;;;5064011;28;19986;-73
2022/12/10 07:26:10;;;;;;;;;;;2.10;97.80;;;;;;5061643;28;19979;-75
2022/12/10 07:28:36;;;;;;;;;;;2.10;97.90;;;;;;5064639;28;19995;-72
2022/12/10 07:31:03;;;;;;;;;;;2.10;97.90;;;;;;5059051;28;20015;-73
2022/12/10 07:33:30;;;;;;;;;;;2.10;97.90;;;;;;5055860;28;20367;-74
2022/12/10 07:35:57;;;;;;;;;;;2.10;97.90;;;;;;5057005;28;19990;-74
2022/12/10 07:38:24;;;;;;;;;;;2.10;97.90;;;;;;5058506;28;19984;-74
2022/12/10 07:40:51;;;;;;;;;;;2.10;97.90;;;;;;5062091;28;19995;-75
2022/12/10 07:43:18;;;;;;;;;;;2.10;97.90;;;;;;5063300;28;19979;-74
2022/12/10 07:45:44;;;;;;;;;;;2.10;97.80;;;;;;5059230;28;19991;-74
2022/12/10 07:48:11;;;;;;;;;;;2.10;97.80;;;;;;5060792;28;19975;-74
2022/12/10 07:50:37;;;;;;;;;;;2.10;97.80;;;;;;5055518;28;19999;-74
2022/12/10 07:53:06;;;;;;;;;;;2.10;97.80;;;;;;5058755;28;20463;-73
2022/12/10 07:55:32;;;;;;;;;;;2.10;97.80;;;;;;5056580;28;20030;-75
2022/12/10 07:57:59;;;;;;;;;;;2.10;97.80;;;;;;5063707;28;19982;-74
2022/12/10 08:00:26;;;;;;;;;;;2.10;97.80;;;;;;5063262;28;19999;-74
2022/12/10 08:02:52;;;;;;;;;;;2.10;97.80;;;;;;5061228;28;19979;-74
2022/12/10 08:05:19;;;;;;;;;;;2.10;97.80;;;;;;5068083;28;19987;-75
2022/12/10 08:07:45;;;;;;;;;;;2.10;97.80;;;;;;5062391;28;19986;-74
2022/12/10 08:10:13;;;;;;;;;;;2.10;97.80;;;;;;5063936;28;19999;-74
2022/12/10 08:12:40;;;;;;;;;;;2.10;97.80;;;;;;5057828;28;20011;-75
2022/12/10 08:15:07;;;;;;;;;;;2.10;97.80;;;;;;5065996;28;19975;-73
2022/12/10 08:17:36;;;;;;;;;;;2.10;97.80;;;;;;5059561;28;20481;-74
2022/12/10 08:20:02;;;;;;;;;;;2.10;97.80;;;;;;5064799;28;19999;-73
2022/12/10 08:22:29;;;;;;;;;;;2.10;97.80;;;;;;5062934;28;20029;-73
2022/12/10 08:24:55;;;;;;;;;;;2.10;97.80;;;;;;5059165;28;19978;-71
2022/12/10 08:27:23;;;;;;;;;;;2.10;97.80;;;;;;5061217;28;20071;-74
2022/12/10 08:29:50;;;;;;;;;;;2.10;97.80;;;;;;5064063;28;20006;-74
2022/12/10 08:32:17;;;;;;;;;;;2.10;98.10;;;;;;5064772;28;19996;-75
2022/12/10 08:34:43;;;;;;;;;;;2.10;97.70;;;;;;5064418;28;20525;-75
2022/12/10 08:37:10;;;;;;;;;;;2.00;97.70;;;;;;5054140;28;20355;-74
2022/12/10 08:39:36;;;;;;;;;;;2.10;97.70;;;;;;5065727;28;20461;-73
2022/12/10 08:42:03;;;;;;;;;;;2.10;98.00;;;;;;5063594;28;19975;-74
2022/12/10 08:44:31;;;;;;;;;;;2.00;97.70;;;;;;5066204;28;20431;-73
2022/12/10 08:46:57;;;;;;;;;;;2.10;97.70;;;;;;5064455;28;19987;-74
2022/12/10 08:49:24;;;;;;;;;;;2.10;97.70;;;;;;5063511;28;20002;-74
2022/12/10 08:51:51;;;;;;;;;;;2.10;97.70;;;;;;5055641;28;19979;-74
2022/12/10 08:54:17;;;;;;;;;;;2.10;97.70;;;;;;5065838;28;20351;-74
2022/12/10 08:56:44;;;;;;;;;;;2.10;97.60;;;;;;5062695;28;19979;-74
2022/12/10 08:59:10;;;;;;;;;;;2.10;97.60;;;;;;5063262;28;19979;-74
2022/12/10 09:01:38;;;;;;;;;;;2.10;97.60;;;;;;5059389;28;19995;-73
2022/12/10 09:04:05;;;;;;;;;;;2.10;97.60;;;;;;5066676;28;19975;-74
2022/12/10 09:06:31;;;;;;;;;;;2.10;97.60;;;;;;5062837;28;19980;-74
2022/12/10 09:08:58;;;;;;;;;;;2.00;97.50;;;;;;5055470;28;19998;-74
2022/12/10 09:11:26;;;;;;;;;;;2.10;97.50;;;;;;5060884;28;20591;-75
2022/12/10 09:13:53;;;;;;;;;;;2.10;97.50;;;;;;5064896;28;20594;-74
2022/12/10 09:16:20;;;;;;;;;;;2.10;97.50;;;;;;5053486;28;19988;-74
2022/12/10 09:18:48;;;;;;;;;;;2.10;97.50;;;;;;5055289;28;19975;-73
2022/12/10 09:21:15;;;;;;;;;;;2.10;97.50;;;;;;5060658;28;19992;-74
2022/12/10 09:23:42;;;;;;;;;;;2.10;97.50;;;;;;5066073;28;19979;-74
2022/12/10 09:26:09;;;;;;;;;;;2.00;97.40;;;;;;5056573;28;19972;-75
2022/12/10 09:28:36;;;;;;;;;;;2.00;97.40;;;;;;5058848;28;19983;-73
2022/12/10 09:31:04;;;;;;;;;;;2.00;97.30;;;;;;5060342;28;20002;-73
2022/12/10 09:33:31;;;;;;;;;;;2.00;97.30;;;;;;5066013;28;20017;-74
2022/12/10 09:35:59;;;;;;;;;;;2.00;97.30;;;;;;5059572;28;19984;-73
2022/12/10 09:38:26;;;;;;;;;;;2.00;97.30;;;;;;5059365;28;19994;-72
2022/12/10 09:40:59;;;;;;;;;;;2.10;97.70;;;;;;5063129;28;19999;-74
2022/12/10 09:43:29;;;;;;;;;;;2.10;97.30;;;;;;5064959;28;19979;-72
2022/12/10 09:46:02;;;;;;;;;;;2.10;97.30;;;;;;5061888;28;19998;-74
2022/12/10 09:48:30;;;;;;;;;;;2.10;97.30;;;;;;5060982;28;19976;-72
2022/12/10 09:51:02;;;;;;;;;;;2.10;97.30;;;;;;5061111;28;20001;-73
2022/12/10 09:53:30;;;;;;;;;;;2.10;97.20;;;;;;5062323;28;20458;-74
2022/12/10 09:55:58;;;;;;;;;;;2.10;97.20;;;;;;5063055;28;20689;-73
2022/12/10 09:58:26;;;;;;;;;;;2.10;97.20;;;;;;5063594;28;20342;-75
2022/12/10 10:00:55;;;;;;;;;;;2.10;97.20;;;;;;5066484;28;20693;-74
2022/12/10 10:03:22;;;;;;;;;;;2.10;97.20;;;;;;5085702;28;19975;-73
2022/12/10 10:05:50;;;;;;;;;;;2.10;97.10;;;;;;5080510;28;19983;-75
2022/12/10 10:08:22;;;;;;;;;;;2.10;97.10;;;;;;5085776;28;19983;-74
2022/12/10 10:10:48;;;;;;;;;;;2.10;97.10;;;;;;5086802;28;20034;-75
2022/12/10 10:13:19;;;;;;;;;;;2.10;97.10;;;;;;5082007;28;19997;-74
2022/12/10 10:15:46;;;;;;;;;;;2.10;97.10;;;;;;5067475;28;21195;-74
2022/12/10 10:18:16;;;;;;;;;;;2.10;97.10;;;;;;5064930;28;19982;-74
2022/12/10 10:20:43;;;;;;;;;;;2.10;97.10;;;;;;5059991;28;19992;-74
2022/12/10 10:23:13;;;;;;;;;;;2.10;97.00;;;;;;5064643;28;20449;-74
2022/12/10 10:25:41;;;;;;;;;;;2.10;97.00;;;;;;5062207;28;19987;-74
2022/12/10 10:28:09;;;;;;;;;;;2.10;97.00;;;;;;5063004;28;19983;-74
2022/12/10 10:30:36;;;;;;;;;;;2.20;96.90;;;;;;5061344;28;19995;-72
2022/12/10 10:33:08;;;;;;;;;;;2.10;96.90;;;;;;5063999;28;19975;-75
2022/12/10 10:35:42;;;;;;;;;;;2.20;96.90;;;;;;5058631;28;19987;-74
2022/12/10 10:38:16;;;;;;;;;;;2.20;96.90;;;;;;5064527;28;19976;-75
2022/12/10 10:40:47;;;;;;;;;;;2.20;96.80;;;;;;5062722;28;20209;-73
2022/12/10 10:43:15;;;;;;;;;;;2.20;96.80;;;;;;5058149;28;20416;-74
2022/12/10 10:45:42;;;;;;;;;;;2.20;96.80;;;;;;5057130;28;19995;-74
2022/12/10 10:48:14;;;;;;;;;;;2.20;96.80;;;;;;5061049;28;19975;-74
2022/12/10 10:50:42;;;;;;;;;;;2.20;96.70;;;;;;5063744;28;20010;-74
2022/12/10 10:53:29;;;;;;;;;;;2.20;96.70;;;;;;5057703;28;19983;-74
2022/12/10 10:55:58;;;;;;;;;;;2.20;96.70;;;;;;5061911;28;20015;-74
2022/12/10 10:58:25;;;;;;;;;;;2.20;96.70;;;;;;5064964;28;19980;-74
2022/12/10 11:00:59;;;;;;;;;;;2.20;96.70;;;;;;5060242;28;19996;-74
2022/12/10 11:03:27;;;;;;;;;;;2.20;96.70;;;;;;5059787;28;20450;-73
2022/12/10 11:05:54;;;;;;;;;;;2.20;96.60;;;;;;5064277;28;19979;-74
2022/12/10 11:08:21;;;;;;;;;;;2.30;96.60;;;;;;5064020;28;19980;-75
2022/12/10 11:10:49;;;;;;;;;;;2.30;96.60;;;;;;5063181;28;20022;-73
2022/12/10 11:13:23;;;;;;;;;;;2.30;96.60;;;;;;5064207;28;20011;-74
2022/12/10 11:15:55;;;;;;;;;;;2.30;96.60;;;;;;5060325;28;19998;-74
2022/12/10 11:18:25;;;;;;;;;;;2.30;96.60;;;;;;5063184;28;19975;-74
2022/12/10 11:20:59;;;;;;;;;;;2.30;96.50;;;;;;5065176;28;19999;-75
2022/12/10 11:23:28;;;;;;;;;;;2.30;96.50;;;;;;5060129;28;19979;-74
2022/12/10 11:25:58;;;;;;;;;;;2.30;96.60;;;;;;5061534;28;19979;-73
2022/12/10 11:28:31;;;;;;;;;;;2.30;96.60;;;;;;5060443;28;20644;-74
2022/12/10 11:31:02;;;;;;;;;;;2.30;96.60;;;;;;5066257;28;19995;-74
2022/12/10 11:33:33;;;;;;;;;;;2.30;96.60;;;;;;5068716;28;20391;-74
2022/12/10 11:36:06;;;;;;;;;;;2.30;96.60;;;;;;5063168;28;19980;-73
2022/12/10 11:38:40;;;;;;;;;;;2.30;96.60;;;;;;5067306;28;20009;-74
2022/12/10 11:41:10;;;;;;;;;;;2.30;96.50;;;;;;5070292;28;19995;-75
2022/12/10 11:43:47;;;;;;;;;;;2.40;96.60;;;;;;5068270;28;19983;-73
2022/12/10 11:46:27;;;;;;;;;;;2.40;96.70;;;;;;5059586;28;19987;-74
2022/12/10 11:49:02;;;;;;;;;;;2.40;96.60;;;;;;5065993;28;19989;-73
2022/12/10 11:51:35;;;;;;;;;;;2.40;96.60;;;;;;5061179;28;20043;-74
2022/12/10 11:54:07;;;;;;;;;;;2.40;96.60;;;;;;5062055;28;19976;-75
2022/12/10 11:56:35;;;;;;;;;;;2.40;96.50;;;;;;5068059;28;20030;-74
2022/12/10 11:59:10;;;;;;;;;;;2.40;96.50;;;;;;5068546;28;19975;-74
2022/12/10 12:01:52;;;;;;;;;;;2.40;96.50;;;;;;5066267;28;19994;-73
2022/12/10 12:04:28;;;;;;;;;;;2.40;96.50;;;;;;5063206;28;19976;-75
2022/12/10 12:07:00;;;;;;;;;;;2.50;96.50;;;;;;5065179;28;19978;-74
2022/12/10 12:09:30;;;;;;;;;;;2.40;96.40;;;;;;5064642;28;19982;-73
2022/12/10 12:12:08;;;;;;;;;;;2.50;96.40;;;;;;5063556;28;20038;-74
2022/12/10 12:14:39;;;;;;;;;;;2.40;96.40;;;;;;5065442;28;20391;-74
2022/12/10 12:17:09;;;;;;;;;;;2.50;96.40;;;;;;5061405;28;20467;-74
2022/12/10 12:19:38;;;;;;;;;;;2.50;96.40;;;;;;5067059;28;19999;-71
2022/12/10 12:22:08;;;;;;;;;;;2.50;96.40;;;;;;5063103;28;19982;-74
2022/12/10 12:24:36;;;;;;;;;;;2.50;96.30;;;;;;5065415;28;20006;-75
2022/12/10 12:27:07;;;;;;;;;;;2.50;96.60;;;;;;5061895;28;20459;-75
2022/12/10 12:29:35;;;;;;;;;;;2.50;96.30;;;;;;5064119;28;19986;-75
2022/12/10 12:32:04;;;;;;;;;;;2.50;96.30;;;;;;5059225;28;20086;-74
2022/12/10 12:34:38;;;;;;;;;;;2.50;96.30;;;;;;5064470;28;19976;-73
2022/12/10 12:37:05;;;;;;;;;;;2.50;96.20;;;;;;5060478;28;19991;-73
2022/12/10 12:39:34;;;;;;;;;;;2.60;96.20;;;;;;5059082;28;20070;-74
2022/12/10 12:42:04;;;;;;;;;;;2.50;96.20;;;;;;5065881;28;20471;-74
2022/12/10 12:44:35;;;;;;;;;;;2.60;96.30;;;;;;5063288;28;19994;-74
2022/12/10 12:47:11;;;;;;;;;;;2.60;96.30;;;;;;5064193;28;19992;-73
2022/12/10 12:49:40;;;;;;;;;;;2.60;96.30;;;;;;5063303;28;20002;-74
2022/12/10 12:52:14;;;;;;;;;;;2.60;96.30;;;;;;5063682;28;19982;-74
2022/12/10 12:54:41;;;;;;;;;;;2.60;96.30;;;;;;5060176;28;19982;-74
2022/12/10 12:57:13;;;;;;;;;;;2.60;96.20;;;;;;5065041;28;19971;-74
2022/12/10 12:59:50;;;;;;;;;;;2.60;96.30;;;;;;5064510;28;19995;-74
2022/12/10 13:02:23;;;;;;;;;;;2.60;96.30;;;;;;5063106;28;19991;-74
2022/12/10 13:04:51;;;;;;;;;;;2.60;96.20;;;;;;5066785;28;19976;-75
2022/12/10 13:07:34;;;;;;;;;;;2.60;96.20;;;;;;5061388;28;20336;-74
2022/12/10 13:10:25;;;;;;;;;;;2.60;96.20;;;;;;5063467;28;19995;-75
2022/12/10 13:13:05;;;;;;;;;;;2.60;96.10;;;;;;5042796;28;20033;-75
2022/12/10 13:15:34;;;;;;;;;;;2.70;96.00;;;;;;5062389;28;19997;-74
2022/12/10 13:18:03;;;;;;;;;;;2.70;96.10;;;;;;5062226;28;20066;-75
2022/12/10 13:20:30;;;;;;;;;;;2.70;96.00;;;;;;5065917;28;19991;-74
2022/12/10 13:22:58;;;;;;;;;;;2.70;96.00;;;;;;5065374;28;20807;-74
2022/12/10 13:25:38;;;;;;;;;;;2.70;96.00;;;;;;5063816;28;20445;-74
2022/12/10 13:28:21;;;;;;;;;;;2.70;96.00;;;;;;5059853;28;19971;-74
2022/12/10 13:31:07;;;;;;;;;;;2.70;96.00;;;;;;5057501;28;19992;-74
2022/12/10 13:33:46;;;;;;;;;;;2.70;95.90;;;;;;5065662;28;20359;-75
2022/12/10 13:36:13;;;;;;;;;;;2.70;95.90;;;;;;5061543;28;19990;-74
2022/12/10 13:38:41;;;;;;;;;;;2.70;95.90;;;;;;5060093;28;19972;-75
2022/12/10 13:46:52;;;;;;;;;;;2.80;95.80;;;;;;5058539;28;20415;-74
2022/12/10 13:49:21;;;;;;;;;;;2.70;95.70;;;;;;5061009;28;20435;-74
2022/12/10 13:51:53;;;;;;;;;;;2.70;95.80;;;;;;5062803;28;19998;-75
2022/12/10 13:54:39;;;;;;;;;;;2.70;95.80;;;;;;5060573;28;19979;-75
2022/12/10 13:57:11;;;;;;;;;;;2.70;95.80;;;;;;5059922;28;19975;-75
2022/12/10 13:59:43;;;;;;;;;;;2.70;95.70;;;;;;5061636;28;20772;-73
2022/12/10 14:02:21;;;;;;;;;;;2.70;95.60;;;;;;5062133;28;19991;-74
2022/12/10 14:04:58;;;;;;;;;;;2.70;95.60;;;;;;5062474;28;19986;-74
2022/12/10 14:07:25;;;;;;;;;;;2.70;95.70;;;;;;5060208;28;20507;-75
2022/12/10 14:09:53;;;;;;;;;;;2.80;95.80;;;;;;5060322;28;20000;-75
2022/12/10 14:12:25;;;;;;;;;;;2.70;95.80;;;;;;5065178;28;19981;-74
2022/12/10 14:14:53;;;;;;;;;;;2.70;95.80;;;;;;5063136;28;19987;-74
2022/12/10 14:17:21;;;;;;;;;;;2.80;95.80;;;;;;5059852;28;19991;-73
2022/12/10 14:19:49;;;;;;;;;;;2.70;95.80;;;;;;5061678;28;20041;-73
2022/12/10 14:22:19;;;;;;;;;;;2.70;95.80;;;;;;5063107;28;19975;-75
2022/12/10 14:24:48;;;;;;;;;;;2.80;95.80;;;;;;5057912;28;20727;-74
2022/12/10 14:27:15;;;;;;;;;;;2.80;95.80;;;;;;5058129;28;19976;-74
2022/12/10 14:29:46;;;;;;;;;;;2.80;95.80;;;;;;5062344;28;19997;-75
2022/12/10 14:32:14;;;;;;;;;;;2.80;95.90;;;;;;5076856;28;20374;-74
2022/12/10 14:34:41;;;;;;;;;;;2.80;95.90;;;;;;5081330;28;20614;-74
2022/12/10 14:37:13;;;;;;;;;;;2.70;95.80;;;;;;5081302;28;19979;-74
2022/12/10 14:39:41;;;;;;;;;;;2.80;95.90;;;;;;5082850;28;20002;-75
2022/12/10 14:42:13;;;;;;;;;;;2.80;95.80;;;;;;5085716;28;19975;-73
2022/12/10 14:44:40;;;;;;;;;;;2.70;95.80;;;;;;5083721;28;19979;-74
2022/12/10 14:47:07;;;;;;;;;;;2.80;95.70;;;;;;5075925;28;20480;-74
2022/12/10 14:49:39;;;;;;;;;;;2.80;95.80;;;;;;5081258;28;19979;-74
2022/12/10 14:52:09;;;;;;;;;;;2.80;95.80;;;;;;5081496;28;19991;-74
2022/12/10 14:54:36;;;;;;;;;;;2.80;95.80;;;;;;5075825;28;19975;-72